Terminal Aerodrome Forecast
Issued by NWS Shreveport, LA

Home | Current Version | Previous Version | Text Only | Print | Product List | Glossary On
Versions: 1 2 3 4 5 6 7 8 9 10 11 12 13 14 15 16 17 18 19 20 21
000
FTUS44 KSHV 280520
TAFTYR
TAF
KTYR 280520Z 2806/2906 15003KT P6SM FEW100
     FM281000 VRB03KT P6SM FEW010
      TEMPO 2811/2813 5SM BR BKN010
     FM281600 18007KT P6SM BKN035
     FM290100 13005KT P6SM SCT250=

USA.gov is the U.S. government's official web portal to all federal, state and local government web resources and services.